createdAt,value
2022-09-27T00:00:32.342Z,32.53
2022-09-27T00:03:01.710Z,29.77
2022-09-27T00:05:30.147Z,31.00
2022-09-27T00:07:58.461Z,36.07
2022-09-27T00:10:26.474Z,31.67
2022-09-27T00:12:55.966Z,28.63
2022-09-27T00:15:23.962Z,30.67
2022-09-27T00:17:52.278Z,31.80
2022-09-27T00:20:21.468Z,29.10
2022-09-27T00:22:50.280Z,31.13
2022-09-27T00:25:18.888Z,29.13
2022-09-27T00:27:46.843Z,32.57
2022-09-27T00:30:16.513Z,30.67
2022-09-27T00:32:44.460Z,29.80
2022-09-27T00:35:12.842Z,33.97
2022-09-27T00:37:40.790Z,33.17
2022-09-27T00:40:09.533Z,30.83
2022-09-27T00:42:37.486Z,46.37
2022-09-27T00:45:12.831Z,40.43
2022-09-27T00:47:49.357Z,37.23
2022-09-27T00:50:25.407Z,37.17
2022-09-27T00:53:00.920Z,41.07
2022-09-27T00:55:31.665Z,45.30
2022-09-27T00:57:59.681Z,61.10
2022-09-27T01:00:27.687Z,59.60
2022-09-27T01:02:58.214Z,57.90
2022-09-27T01:05:29.285Z,48.67
2022-09-27T01:08:00.669Z,43.40
2022-09-27T01:10:33.376Z,40.00
2022-09-27T01:13:11.666Z,41.50
2022-09-27T01:15:46.260Z,66.67
2022-09-27T01:18:30.512Z,44.90
2022-09-27T01:21:29.613Z,78.27
2022-09-27T01:24:40.587Z,66.03
2022-09-27T01:27:48.575Z,49.57
2022-09-27T01:30:29.266Z,85.87
2022-09-27T01:33:09.451Z,56.10
2022-09-27T01:35:49.307Z,138.00
2022-09-27T01:38:23.999Z,89.80
2022-09-27T01:40:55.983Z,57.67
2022-09-27T01:43:28.866Z,143.30
2022-09-27T01:46:00.732Z,156.77
2022-09-27T01:48:36.424Z,129.50
2022-09-27T01:51:08.109Z,73.30
2022-09-27T01:53:39.115Z,87.70
2022-09-27T01:56:11.879Z,102.37
2022-09-27T01:58:46.176Z,74.13
2022-09-27T02:01:17.955Z,153.97
2022-09-27T02:03:50.631Z,140.57
2022-09-27T02:06:21.338Z,81.83
2022-09-27T02:08:54.433Z,119.33
2022-09-27T02:11:22.844Z,65.37
2022-09-27T02:13:57.412Z,103.00
2022-09-27T02:16:34.811Z,77.60
2022-09-27T02:19:09.537Z,98.77
2022-09-27T02:21:43.908Z,66.33
2022-09-27T02:24:15.124Z,90.27
2022-09-27T02:26:46.676Z,73.00
2022-09-27T02:29:18.236Z,99.43
2022-09-27T02:31:47.562Z,93.70
2022-09-27T02:34:19.555Z,131.17
2022-09-27T02:36:48.375Z,94.73
2022-09-27T02:39:18.564Z,108.63
2022-09-27T02:41:46.509Z,70.27
2022-09-27T02:44:17.752Z,94.30
2022-09-27T02:47:08.627Z,112.77
2022-09-27T02:49:47.467Z,84.07
2022-09-27T02:52:23.284Z,69.87
2022-09-27T02:55:03.196Z,64.03
2022-09-27T02:57:42.320Z,73.77
2022-09-27T03:00:13.411Z,59.50
2022-09-27T03:02:54.254Z,58.73
2022-09-27T03:05:25.412Z,57.73
2022-09-27T03:07:53.459Z,50.60
2022-09-27T03:10:24.107Z,47.63
2022-09-27T03:12:52.328Z,44.33
2022-09-27T03:15:20.255Z,41.20
2022-09-27T03:17:49.552Z,39.17
2022-09-27T03:20:17.937Z,44.83
2022-09-27T03:22:46.818Z,39.73
2022-09-27T03:25:14.961Z,40.20
2022-09-27T03:27:42.913Z,34.17
2022-09-27T03:30:14.128Z,37.20
2022-09-27T03:32:44.543Z,39.23
2022-09-27T03:35:14.400Z,36.80
2022-09-27T03:37:43.125Z,40.80
2022-09-27T03:40:11.824Z,36.80
2022-09-27T03:42:40.219Z,39.57
2022-09-27T03:45:08.974Z,40.87
2022-09-27T03:47:40.527Z,41.83
2022-09-27T03:50:09.736Z,44.03
2022-09-27T03:52:39.324Z,50.97
2022-09-27T03:55:08.270Z,35.90
2022-09-27T03:57:36.273Z,51.30
2022-09-27T04:00:04.481Z,48.43
2022-09-27T04:02:33.128Z,33.23
2022-09-27T04:05:01.107Z,38.73
2022-09-27T04:07:29.887Z,37.37
2022-09-27T04:09:59.218Z,32.43
2022-09-27T04:12:27.178Z,30.90
2022-09-27T04:14:55.274Z,37.87
2022-09-27T04:17:23.259Z,31.50
2022-09-27T04:19:51.481Z,31.33
2022-09-27T04:22:19.450Z,33.70
2022-09-27T04:24:47.457Z,27.37
2022-09-27T04:27:17.127Z,28.80
2022-09-27T04:29:45.925Z,27.53
2022-09-27T04:32:14.266Z,32.03
2022-09-27T04:34:59.788Z,31.03
2022-09-27T04:37:28.439Z,36.83
2022-09-27T04:39:56.528Z,31.50
2022-09-27T04:42:28.587Z,30.23
2022-09-27T04:44:56.800Z,30.33
2022-09-27T04:47:24.806Z,48.73
2022-09-27T04:49:52.737Z,44.50
2022-09-27T04:52:20.664Z,42.97
2022-09-27T04:54:48.603Z,40.43
2022-09-27T04:57:16.599Z,46.07
2022-09-27T04:59:45.955Z,49.20
2022-09-27T05:02:13.917Z,48.23
2022-09-27T05:04:41.888Z,45.67
2022-09-27T05:07:09.835Z,47.37
2022-09-27T05:09:37.825Z,49.60
2022-09-27T05:12:08.719Z,50.77
2022-09-27T05:14:37.258Z,55.67
2022-09-27T05:17:07.869Z,60.27
2022-09-27T05:19:35.985Z,58.80
2022-09-27T05:22:03.980Z,58.07
2022-09-27T05:24:32.170Z,55.23
2022-09-27T05:27:00.367Z,57.00
2022-09-27T05:29:28.776Z,59.17
2022-09-27T05:31:56.732Z,55.00
2022-09-27T05:34:26.044Z,53.73
2022-09-27T05:36:54.008Z,51.17
2022-09-27T05:39:21.943Z,57.90
2022-09-27T05:44:19.405Z,49.63
2022-09-27T05:46:47.354Z,49.27
2022-09-27T05:49:15.310Z,43.53
2022-09-27T05:51:44.653Z,39.33
2022-09-27T05:54:13.186Z,41.77
2022-09-27T05:56:41.222Z,40.93
2022-09-27T05:59:09.251Z,36.57
2022-09-27T06:01:37.263Z,37.07
2022-09-27T06:04:06.145Z,40.10
2022-09-27T06:06:37.376Z,33.53
2022-09-27T06:09:06.801Z,31.70
2022-09-27T06:11:34.961Z,29.43
2022-09-27T06:14:02.935Z,28.33
2022-09-27T06:16:30.937Z,24.43
2022-09-27T06:18:59.013Z,28.50
2022-09-27T06:21:28.772Z,20.17
2022-09-27T06:23:57.324Z,23.03
2022-09-27T06:26:28.080Z,22.10
2022-09-27T06:28:56.728Z,28.67
2022-09-27T06:31:24.698Z,21.03
2022-09-27T06:33:52.956Z,21.07
2022-09-27T06:36:20.966Z,21.13
2022-09-27T06:38:49.190Z,21.50
2022-09-27T06:41:17.383Z,17.87
2022-09-27T06:43:46.756Z,22.53
2022-09-27T06:46:15.001Z,23.47
2022-09-27T06:48:43.059Z,16.30
2022-09-27T06:51:11.017Z,19.30
2022-09-27T06:53:38.994Z,18.63
2022-09-27T06:56:07.525Z,19.20
2022-09-27T06:58:52.999Z,20.57
2022-09-27T07:01:22.397Z,23.67
2022-09-27T07:03:51.676Z,18.73
2022-09-27T07:06:23.835Z,19.50
2022-09-27T07:08:53.232Z,18.70
2022-09-27T07:11:23.453Z,21.50
2022-09-27T07:13:51.937Z,23.87
2022-09-27T07:16:20.183Z,16.77
2022-09-27T07:18:51.289Z,20.67
2022-09-27T07:21:19.252Z,18.27
2022-09-27T07:23:47.573Z,17.97
2022-09-27T07:26:15.485Z,19.73
2022-09-27T07:28:45.066Z,18.00
2022-09-27T07:31:13.545Z,18.20
2022-09-27T07:33:43.501Z,19.80
2022-09-27T07:36:14.574Z,14.77
2022-09-27T07:38:42.818Z,21.63
2022-09-27T07:41:13.299Z,16.37
2022-09-27T07:43:41.291Z,18.40
2022-09-27T07:46:09.358Z,17.00
2022-09-27T07:48:37.390Z,22.10
2022-09-27T07:51:07.754Z,16.80
2022-09-27T07:53:37.245Z,15.67
2022-09-27T07:56:05.304Z,13.80
2022-09-27T07:58:33.401Z,11.87
2022-09-27T08:01:02.605Z,13.93
2022-09-27T08:03:31.829Z,14.03
2022-09-27T08:06:04.310Z,16.57
2022-09-27T08:08:32.524Z,18.37
2022-09-27T08:11:01.867Z,18.13
2022-09-27T08:13:29.858Z,11.68
2022-09-27T08:16:03.088Z,12.77
2022-09-27T08:18:31.039Z,13.95
2022-09-27T08:20:59.171Z,12.00
2022-09-27T08:23:27.624Z,9.63
2022-09-27T08:25:57.404Z,12.05
2022-09-27T08:28:27.271Z,12.52
2022-09-27T08:30:55.374Z,9.73
2022-09-27T08:33:29.876Z,10.82
2022-09-27T08:36:00.080Z,11.95
2022-09-27T08:38:28.097Z,11.48
2022-09-27T08:40:58.319Z,8.98
2022-09-27T08:43:37.820Z,14.05
2022-09-27T08:46:15.923Z,8.98
2022-09-27T08:49:18.293Z,11.25
2022-09-27T08:51:50.736Z,10.90
2022-09-27T08:54:22.973Z,9.68
2022-09-27T08:56:51.497Z,12.02
2022-09-27T08:59:24.990Z,9.80
2022-09-27T09:01:55.133Z,16.65
2022-09-27T09:04:29.690Z,9.88
2022-09-27T09:07:10.603Z,10.85
2022-09-27T09:09:48.514Z,11.05
2022-09-27T09:12:54.279Z,11.55
2022-09-27T09:15:54.318Z,12.27
2022-09-27T09:18:34.909Z,12.20
2022-09-27T09:21:12.861Z,13.75
2022-09-27T09:23:59.329Z,10.52
2022-09-27T09:26:35.894Z,9.20
2022-09-27T09:29:13.516Z,9.90
2022-09-27T09:31:47.186Z,8.13
2022-09-27T09:34:19.858Z,30.38
2022-09-27T09:36:52.220Z,14.85
2022-09-27T09:39:25.527Z,16.75
2022-09-27T09:42:07.414Z,23.02
2022-09-27T09:44:46.189Z,36.28
2022-09-27T09:47:22.878Z,34.17
2022-09-27T09:49:54.492Z,21.95
2022-09-27T09:52:25.814Z,16.98
2022-09-27T09:55:01.989Z,14.45
2022-09-27T09:57:35.438Z,13.70
2022-09-27T10:00:08.248Z,12.63
2022-09-27T10:02:40.891Z,8.98
2022-09-27T10:05:14.374Z,13.95
2022-09-27T10:07:42.744Z,11.70
2022-09-27T10:10:16.463Z,22.40
2022-09-27T10:12:44.887Z,20.40
2022-09-27T10:15:17.665Z,32.10
2022-09-27T10:17:51.530Z,34.75
2022-09-27T10:20:29.800Z,14.90
2022-09-27T10:23:04.830Z,7.78
2022-09-27T10:25:48.872Z,13.35
2022-09-27T10:28:32.861Z,16.67
2022-09-27T10:31:03.940Z,7.05
2022-09-27T10:33:34.241Z,11.50
2022-09-27T10:36:02.928Z,11.65
2022-09-27T10:38:32.556Z,7.35
2022-09-27T10:41:18.096Z,6.80
2022-09-27T10:43:46.228Z,16.83
2022-09-27T10:46:19.759Z,11.77
2022-09-27T10:48:49.178Z,10.60
2022-09-27T10:51:26.056Z,9.25
2022-09-27T10:53:58.689Z,7.47
2022-09-27T10:56:30.257Z,5.22
2022-09-27T10:59:00.074Z,7.63
2022-09-27T11:01:39.882Z,6.75
2022-09-27T11:04:17.764Z,7.68
2022-09-27T11:06:46.580Z,6.15
2022-09-27T11:09:23.268Z,9.13
2022-09-27T11:11:51.883Z,8.52
2022-09-27T11:14:22.662Z,12.68
2022-09-27T11:17:05.608Z,17.67
2022-09-27T11:19:54.060Z,10.98
2022-09-27T11:22:37.170Z,9.40
2022-09-27T11:25:19.151Z,7.43
2022-09-27T11:28:00.916Z,9.60
2022-09-27T11:30:36.916Z,8.30
2022-09-27T11:33:35.596Z,10.25
2022-09-27T11:36:13.897Z,10.60
2022-09-27T11:39:02.843Z,33.22
2022-09-27T11:41:55.547Z,12.98
2022-09-27T11:45:07.890Z,27.85
2022-09-27T11:47:52.600Z,9.50
2022-09-27T11:50:42.375Z,10.45
2022-09-27T11:53:26.365Z,6.47
2022-09-27T11:56:04.386Z,5.65
2022-09-27T11:58:42.532Z,8.65
2022-09-27T12:01:24.449Z,12.30
2022-09-27T12:04:23.553Z,10.23
2022-09-27T12:06:59.796Z,7.20
2022-09-27T12:09:33.926Z,12.00
2022-09-27T12:12:05.525Z,7.32
2022-09-27T12:14:38.365Z,8.50
2022-09-27T12:17:11.907Z,8.90
2022-09-27T12:19:43.146Z,11.07
2022-09-27T12:22:16.606Z,10.82
2022-09-27T12:24:47.863Z,7.75
2022-09-27T12:27:21.963Z,9.30
2022-09-27T12:29:51.459Z,8.10
2022-09-27T12:32:25.211Z,13.40
2022-09-27T12:34:57.904Z,6.93
2022-09-27T12:37:29.154Z,9.95
2022-09-27T12:40:03.987Z,8.30
2022-09-27T12:42:36.349Z,8.93
2022-09-27T12:45:05.233Z,11.00
2022-09-27T12:47:48.987Z,11.75
2022-09-27T12:50:28.455Z,13.57
2022-09-27T12:53:04.425Z,13.35
2022-09-27T12:55:53.666Z,8.88
2022-09-27T12:58:53.353Z,9.65
2022-09-27T13:01:35.224Z,7.13
2022-09-27T13:04:32.772Z,8.20
2022-09-27T13:07:14.206Z,18.48
2022-09-27T13:10:15.892Z,21.48
2022-09-27T13:12:51.235Z,34.22
2022-09-27T13:15:27.678Z,16.67
2022-09-27T13:17:57.413Z,11.77
2022-09-27T13:20:44.331Z,14.10
2022-09-27T13:23:58.542Z,10.63
2022-09-27T13:26:48.558Z,11.07
2022-09-27T13:29:38.899Z,9.38
2022-09-27T13:32:26.260Z,10.33
2022-09-27T13:34:56.611Z,10.15
2022-09-27T13:37:45.613Z,11.68
2022-09-27T13:40:28.433Z,11.68
2022-09-27T13:43:34.845Z,14.80
2022-09-27T13:46:09.595Z,13.10
2022-09-27T13:48:50.010Z,14.70
2022-09-27T13:51:25.965Z,12.32
2022-09-27T13:53:59.623Z,14.15
2022-09-27T13:56:51.252Z,13.30
2022-09-27T13:59:25.633Z,14.18
2022-09-27T14:02:00.448Z,13.75
2022-09-27T14:04:35.315Z,13.98
2022-09-27T14:07:05.188Z,16.10
2022-09-27T14:09:35.987Z,16.38
2022-09-27T14:12:10.619Z,17.23
2022-09-27T14:14:40.267Z,18.02
2022-09-27T14:17:10.640Z,18.60
2022-09-27T14:19:42.036Z,17.45
2022-09-27T14:22:14.138Z,16.42
2022-09-27T14:24:47.476Z,15.88
2022-09-27T14:27:18.440Z,17.05
2022-09-27T14:29:49.607Z,11.32
2022-09-27T14:32:20.103Z,8.40
2022-09-27T14:34:48.099Z,8.07
2022-09-27T14:37:24.791Z,5.83
2022-09-27T14:39:59.137Z,6.20
2022-09-27T14:42:32.483Z,5.63
2022-09-27T14:45:05.763Z,6.90
2022-09-27T14:47:35.143Z,10.23
2022-09-27T14:50:14.771Z,8.57
2022-09-27T14:52:42.764Z,10.93
2022-09-27T14:55:17.592Z,7.60
2022-09-27T14:57:49.097Z,7.03
2022-09-27T15:00:20.987Z,11.43
2022-09-27T15:02:54.355Z,7.67
2022-09-27T15:05:24.456Z,6.60
2022-09-27T15:07:55.835Z,8.37
2022-09-27T15:10:27.175Z,8.37
2022-09-27T15:13:00.000Z,6.67
2022-09-27T15:15:31.979Z,11.40
2022-09-27T15:18:01.787Z,9.37
2022-09-27T15:20:34.927Z,10.07
2022-09-27T15:23:04.949Z,9.53
2022-09-27T15:25:35.835Z,8.30
2022-09-27T15:28:07.127Z,10.37
2022-09-27T15:30:38.171Z,15.77
2022-09-27T15:33:18.037Z,11.27
2022-09-27T15:35:50.746Z,13.93
2022-09-27T15:38:28.950Z,11.03
2022-09-27T15:41:06.547Z,15.90
2022-09-27T15:43:37.168Z,14.37
2022-09-27T15:46:07.346Z,14.67
2022-09-27T15:48:37.796Z,14.37
2022-09-27T15:51:41.817Z,10.50
2022-09-27T15:54:09.832Z,16.10
2022-09-27T15:56:40.231Z,12.17
2022-09-27T15:59:14.063Z,13.27
2022-09-27T16:01:42.061Z,12.33
2022-09-27T16:04:11.571Z,11.90
2022-09-27T16:06:40.975Z,10.80
2022-09-27T16:09:15.425Z,13.70
2022-09-27T16:11:43.614Z,15.60
2022-09-27T16:14:13.093Z,14.60
2022-09-27T16:16:43.021Z,13.80
2022-09-27T16:19:12.569Z,15.27
2022-09-27T16:21:42.819Z,15.60
2022-09-27T16:24:11.795Z,18.77
2022-09-27T16:26:40.092Z,21.83
2022-09-27T16:29:12.943Z,21.03
2022-09-27T16:31:42.712Z,25.97
2022-09-27T16:34:12.750Z,24.20
2022-09-27T16:36:41.474Z,25.17
2022-09-27T16:39:13.688Z,25.63
2022-09-27T16:41:42.337Z,28.50
2022-09-27T16:44:11.840Z,26.60
2022-09-27T16:46:41.365Z,29.77
2022-09-27T16:49:30.445Z,28.93
2022-09-27T16:52:01.794Z,33.53
2022-09-27T16:54:30.780Z,29.70
2022-09-27T16:56:59.605Z,28.57
2022-09-27T16:59:28.244Z,38.00
2022-09-27T17:01:57.181Z,33.43
2022-09-27T17:04:25.743Z,31.40
2022-09-27T17:06:53.822Z,29.27
2022-09-27T17:09:23.495Z,28.23
2022-09-27T17:11:52.019Z,27.67
2022-09-27T17:14:20.640Z,30.27
2022-09-27T17:16:49.246Z,29.33
2022-09-27T17:19:18.391Z,29.03
2022-09-27T17:21:46.914Z,32.00
2022-09-27T17:24:15.287Z,33.27
2022-09-27T17:26:45.253Z,35.03
2022-09-27T17:29:14.370Z,29.23
2022-09-27T17:31:43.148Z,32.77
2022-09-27T17:34:13.208Z,37.17
2022-09-27T17:36:43.129Z,33.07
2022-09-27T17:39:13.809Z,35.13
2022-09-27T17:41:42.398Z,34.67
2022-09-27T17:44:14.815Z,37.33
2022-09-27T17:46:43.618Z,32.80
2022-09-27T17:49:30.046Z,32.87
2022-09-27T17:51:58.004Z,35.13
2022-09-27T17:54:27.995Z,30.40
2022-09-27T17:56:56.361Z,30.43
2022-09-27T17:59:26.646Z,32.63
2022-09-27T18:01:54.696Z,34.53
2022-09-27T18:04:22.759Z,32.07
2022-09-27T18:06:50.736Z,31.30
2022-09-27T18:09:19.720Z,35.57
2022-09-27T18:11:48.268Z,31.73
2022-09-27T18:14:16.376Z,32.90
2022-09-27T18:16:45.832Z,30.73
2022-09-27T18:19:15.669Z,36.27
2022-09-27T18:21:44.426Z,35.63
2022-09-27T18:24:14.266Z,37.50
2022-09-27T18:26:42.405Z,36.13
2022-09-27T18:29:12.261Z,36.67
2022-09-27T18:31:42.101Z,36.73
2022-09-27T18:34:14.254Z,37.50
2022-09-27T18:36:43.962Z,37.83
2022-09-27T18:39:15.109Z,36.83
2022-09-27T18:41:43.269Z,36.03
2022-09-27T18:44:14.327Z,36.87
2022-09-27T18:46:42.608Z,37.03
2022-09-27T18:49:13.290Z,35.63
2022-09-27T18:51:46.260Z,36.03
2022-09-27T18:54:16.953Z,39.20
2022-09-27T18:56:45.033Z,34.67
2022-09-27T18:59:13.270Z,30.20
2022-09-27T19:01:45.045Z,32.30
2022-09-27T19:04:19.198Z,25.43
2022-09-27T19:06:51.333Z,28.23
2022-09-27T19:09:19.276Z,26.80
2022-09-27T19:11:47.447Z,24.60
2022-09-27T19:14:17.852Z,27.67
2022-09-27T19:16:47.443Z,26.40
2022-09-27T19:19:15.917Z,28.43
2022-09-27T19:21:44.393Z,23.60
2022-09-27T19:24:14.078Z,27.83
2022-09-27T19:26:42.660Z,22.57
2022-09-27T19:29:10.661Z,25.17
2022-09-27T19:31:38.717Z,24.80
2022-09-27T19:34:06.750Z,26.47
2022-09-27T19:36:34.705Z,26.20
2022-09-27T19:39:02.747Z,23.73
2022-09-27T19:41:32.162Z,25.87
2022-09-27T19:44:00.119Z,27.73
2022-09-27T19:46:28.186Z,26.87
2022-09-27T19:48:56.354Z,25.00
2022-09-27T19:51:25.669Z,19.37
2022-09-27T19:53:54.495Z,22.42
2022-09-27T19:56:23.186Z,24.00
2022-09-27T19:58:53.262Z,24.03
2022-09-27T20:01:22.818Z,20.57
2022-09-27T20:03:52.594Z,23.23
2022-09-27T20:06:21.657Z,21.73
2022-09-27T20:08:49.967Z,20.73
2022-09-27T20:11:19.290Z,21.90
2022-09-27T20:13:47.535Z,21.53
2022-09-27T20:16:18.737Z,19.00
2022-09-27T20:18:48.468Z,18.90
2022-09-27T20:21:17.593Z,20.30
2022-09-27T20:23:48.753Z,17.93
2022-09-27T20:26:18.732Z,17.47
2022-09-27T20:28:48.267Z,20.63
2022-09-27T20:31:20.070Z,18.47
2022-09-27T20:33:50.653Z,18.27
2022-09-27T20:36:20.312Z,21.63
2022-09-27T20:38:49.918Z,30.77
2022-09-27T20:41:20.171Z,28.17
2022-09-27T20:43:49.410Z,29.40
2022-09-27T20:46:20.030Z,19.27
2022-09-27T20:48:52.441Z,22.67
2022-09-27T20:51:20.774Z,19.57
2022-09-27T20:53:51.303Z,18.73
2022-09-27T20:56:20.999Z,19.47
2022-09-27T20:58:49.689Z,23.73
2022-09-27T21:01:19.753Z,20.90
2022-09-27T21:03:47.981Z,22.67
2022-09-27T21:06:16.759Z,25.30
2022-09-27T21:08:44.723Z,22.47
2022-09-27T21:11:14.476Z,26.47
2022-09-27T21:13:43.378Z,22.37
2022-09-27T21:16:14.475Z,23.27
2022-09-27T21:18:44.468Z,28.30
2022-09-27T21:21:14.399Z,21.50
2022-09-27T21:23:44.827Z,24.37
2022-09-27T21:26:14.871Z,26.57
2022-09-27T21:28:44.434Z,23.67
2022-09-27T21:31:16.632Z,22.30
2022-09-27T21:33:50.471Z,23.77
2022-09-27T21:36:18.462Z,24.97
2022-09-27T21:38:46.463Z,23.33
2022-09-27T21:41:16.177Z,24.93
2022-09-27T21:43:45.553Z,28.50
2022-09-27T21:46:15.582Z,28.50
2022-09-27T21:48:45.666Z,25.13
2022-09-27T21:51:16.451Z,24.80
2022-09-27T21:53:45.949Z,25.27
2022-09-27T21:56:13.940Z,21.37
2022-09-27T21:58:42.278Z,22.70
2022-09-27T22:01:12.187Z,23.50
2022-09-27T22:03:43.549Z,21.37
2022-09-27T22:06:14.805Z,20.10
2022-09-27T22:08:45.018Z,21.27
2022-09-27T22:11:16.069Z,20.40
2022-09-27T22:13:44.102Z,18.93
2022-09-27T22:16:14.262Z,21.53
2022-09-27T22:18:45.566Z,21.87
2022-09-27T22:21:16.630Z,19.33
2022-09-27T22:23:46.078Z,21.37
2022-09-27T22:26:15.885Z,20.73
2022-09-27T22:28:44.917Z,22.83
2022-09-27T22:31:15.186Z,20.80
2022-09-27T22:33:43.941Z,19.70
2022-09-27T22:36:11.904Z,19.03
2022-09-27T22:38:39.841Z,16.20
2022-09-27T22:41:09.418Z,22.13
2022-09-27T22:43:37.397Z,19.53
2022-09-27T22:46:05.376Z,18.73
2022-09-27T22:48:34.256Z,19.67
2022-09-27T22:51:03.566Z,19.97
2022-09-27T22:53:32.786Z,16.10
2022-09-27T22:56:04.490Z,19.03
2022-09-27T22:58:35.875Z,21.33
2022-09-27T23:01:08.982Z,16.10
2022-09-27T23:03:37.168Z,18.93
2022-09-27T23:06:07.433Z,18.63
2022-09-27T23:08:36.316Z,23.57
2022-09-27T23:11:06.771Z,21.30
2022-09-27T23:13:38.632Z,22.83
2022-09-27T23:16:08.965Z,22.00
2022-09-27T23:18:38.171Z,24.47
2022-09-27T23:21:08.541Z,23.07
2022-09-27T23:23:37.576Z,20.90
2022-09-27T23:26:07.615Z,26.40
2022-09-27T23:28:37.252Z,24.17
2022-09-27T23:31:08.263Z,29.87
2022-09-27T23:33:36.810Z,25.33
2022-09-27T23:36:05.536Z,22.60
2022-09-27T23:38:34.505Z,24.10
2022-09-27T23:41:02.640Z,26.53
2022-09-27T23:43:30.811Z,24.00
2022-09-27T23:46:00.255Z,24.67
2022-09-27T23:48:28.790Z,24.27
2022-09-27T23:50:57.248Z,26.37
2022-09-27T23:53:25.563Z,25.00
2022-09-27T23:56:02.680Z,23.87
2022-09-27T23:58:32.979Z,23.10
